createdAt,value
2022-08-22T00:02:14.259Z,101075.28
2022-08-22T00:02:45.527Z,101176.16
2022-08-22T00:02:46.808Z,101160.22
2022-08-22T00:02:57.677Z,101077.44
2022-08-22T00:03:01.814Z,101188.06
2022-08-22T00:05:18.138Z,101086.69
2022-08-22T00:08:22.666Z,101096.41
2022-08-22T00:11:21.037Z,101090.22
2022-08-22T00:14:18.240Z,101085.75
2022-08-22T00:17:22.036Z,101092.38
2022-08-22T00:20:13.831Z,101087.00
2022-08-22T00:23:24.448Z,101085.38
2022-08-22T00:26:26.206Z,101078.34
2022-08-22T00:29:20.503Z,101079.22
2022-08-22T00:32:32.788Z,101072.03
2022-08-22T00:35:36.507Z,101077.50
2022-08-22T00:38:40.177Z,101078.41
2022-08-22T00:41:41.818Z,101064.44
2022-08-22T00:44:49.691Z,101054.56
2022-08-22T00:48:02.103Z,101055.53
2022-08-22T00:51:01.158Z,101058.97
2022-08-22T00:53:59.187Z,101063.50
2022-08-22T00:57:09.343Z,101051.09
2022-08-22T01:00:09.495Z,101057.34
2022-08-22T01:03:08.150Z,101058.97
2022-08-22T01:06:06.901Z,101062.56
2022-08-22T01:09:05.424Z,101052.94
2022-08-22T01:11:46.150Z,101054.88
2022-08-22T01:14:39.208Z,101073.41
2022-08-22T01:17:46.177Z,101062.78
2022-08-22T01:20:54.378Z,101067.19
2022-08-22T01:24:27.232Z,101067.31
2022-08-22T01:27:44.363Z,101056.72
2022-08-22T01:30:36.168Z,101070.78
2022-08-22T01:33:53.612Z,101054.94
2022-08-22T01:37:15.329Z,101054.94
2022-08-22T01:40:20.270Z,101061.06
2022-08-22T01:43:17.295Z,101060.16
2022-08-22T01:46:21.517Z,101067.16
2022-08-22T01:49:36.142Z,101067.13
2022-08-22T01:52:36.195Z,101065.38
2022-08-22T01:55:29.786Z,101064.47
2022-08-22T01:58:31.228Z,101067.13
2022-08-22T02:01:23.269Z,101064.41
2022-08-22T02:04:14.767Z,101060.75
2022-08-22T02:07:05.337Z,101068.53
2022-08-22T02:10:09.141Z,101060.66
2022-08-22T02:13:08.291Z,101052.78
2022-08-22T02:16:27.250Z,101044.84
2022-08-22T02:19:15.158Z,101046.53
2022-08-22T02:22:12.673Z,101042.06
2022-08-22T02:25:12.211Z,101043.91
2022-08-22T02:28:07.275Z,101038.59
2022-08-22T02:31:02.229Z,101038.63
2022-08-22T02:33:56.940Z,101037.53
2022-08-22T02:37:02.641Z,101035.75
2022-08-22T02:39:57.426Z,101028.84
2022-08-22T02:43:26.344Z,101031.47
2022-08-22T02:46:25.708Z,101033.22
2022-08-22T02:49:27.987Z,101029.75
2022-08-22T02:52:20.240Z,101033.31
2022-08-22T02:55:15.192Z,101029.03
2022-08-22T02:58:23.843Z,101022.81
2022-08-22T03:01:30.694Z,101016.53
2022-08-22T03:04:29.262Z,101018.97
2022-08-22T03:07:22.631Z,101011.78
2022-08-22T03:10:23.658Z,101011.09
2022-08-22T03:13:33.459Z,101005.75
2022-08-22T03:16:23.279Z,100993.44
2022-08-22T03:19:18.842Z,100983.69
2022-08-22T03:22:11.568Z,100982.81
2022-08-22T03:25:11.521Z,100989.06
2022-08-22T03:28:03.456Z,100982.13
2022-08-22T03:31:02.541Z,100991.91
2022-08-22T03:33:43.822Z,101006.09
2022-08-22T03:36:36.529Z,100990.00
2022-08-22T03:39:25.270Z,101000.66
2022-08-22T03:42:37.179Z,100991.00
2022-08-22T03:45:40.613Z,100978.63
2022-08-22T03:48:50.708Z,100974.19
2022-08-22T03:51:36.261Z,100987.59
2022-08-22T03:54:49.250Z,100989.34
2022-08-22T03:57:49.552Z,100979.53
2022-08-22T04:01:26.472Z,100984.75
2022-08-22T04:04:09.526Z,100995.41
2022-08-22T04:07:28.340Z,101006.03
2022-08-22T04:10:51.764Z,100995.44
2022-08-22T04:14:00.364Z,101004.31
2022-08-22T04:17:07.306Z,100999.94
2022-08-22T04:20:16.658Z,100999.94
2022-08-22T04:23:18.089Z,100995.50
2022-08-22T04:26:12.683Z,101000.78
2022-08-22T04:29:03.328Z,100997.25
2022-08-22T04:32:13.992Z,100990.19
2022-08-22T04:35:13.874Z,100983.13
2022-08-22T04:38:14.282Z,100984.00
2022-08-22T04:41:04.518Z,100976.94
2022-08-22T04:43:54.444Z,100967.94
2022-08-22T04:46:58.358Z,100974.09
2022-08-22T04:49:54.943Z,100977.59
2022-08-22T04:53:13.888Z,100983.88
2022-08-22T04:56:37.235Z,100985.69
2022-08-22T04:59:20.343Z,100983.03
2022-08-22T05:02:14.286Z,100982.13
2022-08-22T05:05:04.127Z,100983.75
2022-08-22T05:08:06.688Z,100978.38
2022-08-22T05:10:53.762Z,100987.22
2022-08-22T05:13:50.594Z,100985.47
2022-08-22T05:16:37.734Z,100983.75
2022-08-22T05:19:33.230Z,100991.75
2022-08-22T05:22:24.772Z,100994.41
2022-08-22T05:25:25.453Z,100986.47
2022-08-22T05:28:18.511Z,100989.09
2022-08-22T05:31:01.454Z,100986.34
2022-08-22T05:33:57.907Z,100986.38
2022-08-22T05:36:50.662Z,100986.41
2022-08-22T05:39:40.426Z,100992.59
2022-08-22T05:42:34.304Z,100980.13
2022-08-22T05:45:26.474Z,100982.59
2022-08-22T05:48:19.428Z,100978.13
2022-08-22T05:51:23.486Z,100994.84
2022-08-22T05:54:35.236Z,100996.59
2022-08-22T05:57:48.381Z,101012.50
2022-08-22T06:00:33.310Z,101034.53
2022-08-22T06:03:33.370Z,101042.44
2022-08-22T06:06:22.691Z,101036.28
2022-08-22T06:09:25.179Z,101049.44
2022-08-22T06:12:26.649Z,101053.78
2022-08-22T06:15:47.252Z,101054.63
2022-08-22T06:18:33.331Z,101047.50
2022-08-22T06:21:43.594Z,101049.25
2022-08-22T06:24:40.688Z,101045.69
2022-08-22T06:27:32.339Z,101027.13
2022-08-22T06:30:15.392Z,101031.31
2022-08-22T06:33:12.614Z,101028.75
2022-08-22T06:36:17.289Z,101035.72
2022-08-22T06:39:11.360Z,101041.78
2022-08-22T06:42:04.515Z,101034.59
2022-08-22T06:45:00.447Z,101037.00
2022-08-22T06:47:58.015Z,101032.38
2022-08-22T06:50:51.399Z,101037.50
2022-08-22T06:53:51.346Z,101039.91
2022-08-22T06:56:47.803Z,101037.13
2022-08-22T06:59:37.359Z,101039.72
2022-08-22T07:02:47.649Z,101043.19
2022-08-22T07:05:35.687Z,101037.00
2022-08-22T07:08:28.596Z,101033.50
2022-08-22T07:11:30.006Z,101036.22
2022-08-22T07:14:23.386Z,101034.50
2022-08-22T07:17:08.309Z,101037.88
2022-08-22T07:20:07.167Z,101031.47
2022-08-22T07:23:09.378Z,101033.00
2022-08-22T07:26:06.424Z,101025.78
2022-08-22T07:28:59.401Z,101025.59
2022-08-22T07:32:11.498Z,101021.88
2022-08-22T07:35:33.877Z,101026.09
2022-08-22T07:38:42.677Z,101033.94
2022-08-22T07:41:39.364Z,101034.81
2022-08-22T07:44:31.550Z,101035.53
2022-08-22T07:47:26.509Z,101041.63
2022-08-22T07:50:19.409Z,101035.06
2022-08-22T07:53:08.671Z,101036.28
2022-08-22T07:55:57.961Z,101045.19
2022-08-22T07:58:42.376Z,101047.06
2022-08-22T08:01:31.222Z,101034.84
2022-08-22T08:04:17.364Z,101040.97
2022-08-22T08:07:09.858Z,101034.88
2022-08-22T08:10:11.230Z,101047.78
2022-08-22T08:13:07.400Z,101037.13
2022-08-22T08:15:52.704Z,101042.41
2022-08-22T08:18:44.642Z,101041.66
2022-08-22T08:21:35.324Z,101042.88
2022-08-22T08:24:40.969Z,101042.72
2022-08-22T08:27:54.125Z,101046.13
2022-08-22T08:30:46.055Z,101035.78
2022-08-22T08:33:35.354Z,101040.59
2022-08-22T08:36:37.011Z,101030.41
2022-08-22T08:39:45.485Z,101032.47
2022-08-22T08:42:33.271Z,101031.91
2022-08-22T08:45:34.454Z,101032.84
2022-08-22T08:48:36.482Z,101028.19
2022-08-22T08:51:27.797Z,101031.31
2022-08-22T08:54:31.504Z,101028.81
2022-08-22T08:57:56.433Z,101024.91
2022-08-22T09:00:49.504Z,101036.28
2022-08-22T09:03:54.673Z,101039.81
2022-08-22T09:07:09.515Z,101035.97
2022-08-22T09:10:21.394Z,101034.47
2022-08-22T09:13:29.840Z,101032.94
2022-08-22T09:16:38.370Z,101035.03
2022-08-22T09:20:17.676Z,101032.81
2022-08-22T09:23:24.376Z,101030.28
2022-08-22T09:26:34.918Z,101038.16
2022-08-22T09:29:29.287Z,101040.69
2022-08-22T09:32:38.575Z,101040.19
2022-08-22T09:35:30.408Z,101041.78
2022-08-22T09:38:31.485Z,101042.28
2022-08-22T09:41:43.126Z,101039.16
2022-08-22T09:44:45.441Z,101030.47
2022-08-22T09:47:49.445Z,101032.19
2022-08-22T09:51:13.483Z,101021.53
2022-08-22T09:54:24.407Z,101026.69
2022-08-22T09:57:22.709Z,101028.22
2022-08-22T10:00:09.448Z,101030.84
2022-08-22T10:03:07.576Z,101037.56
2022-08-22T10:06:09.179Z,101045.84
2022-08-22T10:09:16.881Z,101050.13
2022-08-22T10:12:40.271Z,101053.66
2022-08-22T10:15:57.320Z,101055.06
2022-08-22T10:19:08.630Z,101047.97
2022-08-22T10:22:34.908Z,101046.78
2022-08-22T10:25:58.794Z,101039.28
2022-08-22T10:29:16.985Z,101034.75
2022-08-22T10:32:32.371Z,101033.56
2022-08-22T10:35:36.822Z,101027.38
2022-08-22T10:38:36.149Z,101026.31
2022-08-22T10:42:10.636Z,101028.25
2022-08-22T10:45:23.883Z,101025.03
2022-08-22T10:48:43.719Z,101029.00
2022-08-22T10:51:31.948Z,101035.53
2022-08-22T10:54:51.269Z,101032.94
2022-08-22T10:58:01.891Z,101029.59
2022-08-22T11:01:37.137Z,101026.53
2022-08-22T11:04:39.629Z,101027.22
2022-08-22T11:07:39.514Z,101024.16
2022-08-22T11:10:35.484Z,101025.91
2022-08-22T11:13:50.676Z,101030.06
2022-08-22T11:17:02.598Z,101028.31
2022-08-22T11:20:13.864Z,101030.00
2022-08-22T11:23:16.773Z,101030.94
2022-08-22T11:26:38.269Z,101034.66
2022-08-22T11:30:00.166Z,101029.72
2022-08-22T11:33:46.122Z,101030.75
2022-08-22T11:36:34.306Z,101030.63
2022-08-22T11:39:47.017Z,101021.47
2022-08-22T11:45:50.898Z,101023.06
2022-08-22T11:48:48.734Z,101026.91
2022-08-22T11:52:19.963Z,101027.22
2022-08-22T11:55:35.550Z,101026.28
2022-08-22T11:58:54.378Z,101033.34
2022-08-22T12:02:19.539Z,101022.53
2022-08-22T12:05:37.558Z,101022.16
2022-08-22T12:08:39.509Z,101028.28
2022-08-22T12:11:51.007Z,101013.59
2022-08-22T12:14:48.866Z,101020.06
2022-08-22T12:17:59.944Z,101014.66
2022-08-22T12:20:48.464Z,101011.75
2022-08-22T12:23:50.234Z,101012.44
2022-08-22T12:26:57.602Z,101012.75
2022-08-22T12:29:55.163Z,101010.81
2022-08-22T12:33:22.023Z,101011.13
2022-08-22T12:36:18.744Z,101020.13
2022-08-22T12:39:51.020Z,101011.69
2022-08-22T12:42:50.503Z,101013.09
2022-08-22T12:46:01.003Z,101024.66
2022-08-22T12:48:54.596Z,101013.03
2022-08-22T12:51:45.501Z,101015.22
2022-08-22T12:54:56.218Z,101017.63
2022-08-22T12:58:23.924Z,101027.03
2022-08-22T13:01:34.390Z,101019.56
2022-08-22T13:04:50.001Z,101021.06
2022-08-22T13:07:36.649Z,101017.34
2022-08-22T13:10:46.591Z,101010.63
2022-08-22T13:13:56.404Z,100999.63
2022-08-22T13:16:55.543Z,101002.66
2022-08-22T13:19:42.617Z,100991.16
2022-08-22T13:22:34.538Z,100984.53
2022-08-22T13:25:35.491Z,100988.16
2022-08-22T13:28:24.949Z,100991.91
2022-08-22T13:31:12.437Z,100992.13
2022-08-22T13:34:19.598Z,100985.09
2022-08-22T13:37:10.151Z,100985.38
2022-08-22T13:40:04.804Z,100976.47
2022-08-22T13:42:56.787Z,100981.94
2022-08-22T13:45:48.536Z,100979.56
2022-08-22T13:48:35.703Z,100977.94
2022-08-22T13:51:45.383Z,100967.06
2022-08-22T13:54:40.002Z,100975.25
2022-08-22T13:57:44.040Z,100976.19
2022-08-22T14:00:58.643Z,100971.91
2022-08-22T14:03:52.752Z,100971.25
2022-08-22T14:06:46.710Z,100972.66
2022-08-22T14:09:43.106Z,100970.56
2022-08-22T14:12:50.197Z,100964.63
2022-08-22T14:15:45.532Z,100971.53
2022-08-22T14:18:36.025Z,100966.44
2022-08-22T14:21:40.063Z,100969.84
2022-08-22T14:24:25.698Z,100965.13
2022-08-22T14:27:45.666Z,100971.00
2022-08-22T14:30:33.040Z,100966.41
2022-08-22T14:33:31.540Z,100964.84
2022-08-22T14:36:33.694Z,100965.94
2022-08-22T14:39:37.685Z,100962.22
2022-08-22T14:42:32.827Z,100959.94
2022-08-22T14:45:40.876Z,100953.00
2022-08-22T14:48:32.594Z,100954.13
2022-08-22T14:51:30.170Z,100955.84
2022-08-22T14:54:28.922Z,100946.75
2022-08-22T14:57:21.172Z,100954.94
2022-08-22T15:00:11.102Z,100949.16
2022-08-22T15:02:58.623Z,100941.38
2022-08-22T15:05:48.718Z,100946.06
2022-08-22T15:08:42.627Z,100951.91
2022-08-22T15:11:34.731Z,100946.63
2022-08-22T15:14:52.392Z,100943.00
2022-08-22T15:17:50.793Z,100933.78
2022-08-22T15:20:45.389Z,100939.56
2022-08-22T15:23:31.889Z,100938.22
2022-08-22T15:26:35.964Z,100933.81
2022-08-22T15:29:36.834Z,100936.19
2022-08-22T15:32:30.603Z,100937.06
2022-08-22T15:35:17.743Z,100939.34
2022-08-22T15:38:11.311Z,100933.38
2022-08-22T15:40:53.759Z,100923.16
2022-08-22T15:43:51.979Z,100930.16
2022-08-22T15:46:38.742Z,100921.34
2022-08-22T15:49:27.630Z,100915.69
2022-08-22T15:52:12.742Z,100924.34
2022-08-22T15:55:00.624Z,100922.31
2022-08-22T15:57:44.732Z,100925.78
2022-08-22T16:00:43.286Z,100929.47
2022-08-22T16:03:30.230Z,100921.50
2022-08-22T16:06:19.804Z,100922.28
2022-08-22T16:09:07.733Z,100920.72
2022-08-22T16:12:01.984Z,100925.56
2022-08-22T16:14:47.447Z,100925.03
2022-08-22T16:17:36.012Z,100928.28
2022-08-22T16:20:20.029Z,100931.78
2022-08-22T16:23:10.005Z,100938.03
2022-08-22T16:26:04.630Z,100938.63
2022-08-22T16:29:17.970Z,100944.53
2022-08-22T16:31:57.729Z,100938.06
2022-08-22T16:34:50.664Z,100938.28
2022-08-22T16:37:53.910Z,100940.19
2022-08-22T16:40:54.503Z,100937.19
2022-08-22T16:43:36.732Z,100932.69
2022-08-22T16:46:52.549Z,100939.19
2022-08-22T16:49:38.813Z,100936.47
2022-08-22T16:52:34.903Z,100931.25
2022-08-22T16:55:39.474Z,100930.41
2022-08-22T16:59:14.153Z,100939.06
2022-08-22T17:02:15.064Z,100933.56
2022-08-22T17:05:09.721Z,100935.38
2022-08-22T17:08:01.007Z,100943.53
2022-08-22T17:11:52.360Z,100927.84
2022-08-22T17:14:52.087Z,100929.72
2022-08-22T17:18:19.767Z,100935.34
2022-08-22T17:21:26.118Z,100931.28
2022-08-22T17:24:32.214Z,100923.72
2022-08-22T17:27:35.175Z,100928.41
2022-08-22T17:30:23.888Z,100933.69
2022-08-22T17:33:40.759Z,100930.00
2022-08-22T17:36:34.202Z,100941.41
2022-08-22T17:39:38.885Z,100939.69
2022-08-22T17:42:45.150Z,100938.22
2022-08-22T17:46:12.827Z,100938.28
2022-08-22T17:49:08.042Z,100936.44
2022-08-22T17:52:15.962Z,100935.63
2022-08-22T17:55:09.674Z,100929.22
2022-08-22T17:58:35.659Z,100943.69
2022-08-22T18:01:27.118Z,100954.75
2022-08-22T18:04:20.688Z,100947.97
2022-08-22T18:07:34.063Z,100950.13
2022-08-22T18:10:21.802Z,100947.75
2022-08-22T18:13:07.883Z,100951.31
2022-08-22T18:16:08.005Z,100950.50
2022-08-22T18:19:03.645Z,100953.38
2022-08-22T18:22:03.549Z,100953.56
2022-08-22T18:25:10.088Z,100951.75
2022-08-22T18:27:56.856Z,100948.22
2022-08-22T18:30:58.055Z,100954.75
2022-08-22T18:33:59.022Z,100958.22
2022-08-22T18:36:47.088Z,100957.69
2022-08-22T18:39:49.657Z,100956.34
2022-08-22T18:42:51.804Z,100954.63
2022-08-22T18:45:53.866Z,100963.09
2022-08-22T18:48:54.379Z,100962.56
2022-08-22T18:51:48.258Z,100966.97
2022-08-22T18:54:44.097Z,100966.28
2022-08-22T18:57:42.958Z,100966.22
2022-08-22T19:00:30.088Z,100968.16
2022-08-22T19:03:20.894Z,100969.25
2022-08-22T19:06:34.717Z,100972.22
2022-08-22T19:09:52.827Z,100967.03
2022-08-22T19:13:02.741Z,100973.59
2022-08-22T19:16:18.261Z,100972.66
2022-08-22T19:19:03.748Z,100977.34
2022-08-22T19:22:21.885Z,100977.47
2022-08-22T19:26:05.621Z,100982.88
2022-08-22T19:28:46.872Z,100998.47
2022-08-22T19:31:48.109Z,100992.50
2022-08-22T19:34:33.914Z,100998.88
2022-08-22T19:37:34.192Z,100993.44
2022-08-22T19:40:17.975Z,100992.47
2022-08-22T19:43:08.856Z,100990.09
2022-08-22T19:45:50.078Z,100998.19
2022-08-22T19:49:00.144Z,100999.25
2022-08-22T19:51:41.683Z,101006.19
2022-08-22T19:54:31.188Z,101005.53
2022-08-22T19:57:23.889Z,101006.19
2022-08-22T20:00:19.686Z,101012.75
2022-08-22T20:03:11.988Z,101015.09
2022-08-22T20:06:33.642Z,101019.69
2022-08-22T20:09:35.854Z,101020.41
2022-08-22T20:12:50.861Z,101022.34
2022-08-22T20:15:38.969Z,101022.16
2022-08-22T20:19:08.524Z,101026.78
2022-08-22T20:21:59.035Z,101030.56
2022-08-22T20:24:59.147Z,101030.50
2022-08-22T20:27:51.967Z,101028.66
2022-08-22T20:30:59.567Z,101033.22
2022-08-22T20:33:50.868Z,101029.63
2022-08-22T20:36:32.201Z,101028.66
2022-08-22T20:39:26.966Z,101036.00
2022-08-22T20:42:13.393Z,101028.13
2022-08-22T20:45:02.001Z,101025.91
2022-08-22T20:47:55.911Z,101035.75
2022-08-22T20:50:45.039Z,101037.13
2022-08-22T20:53:30.098Z,101036.03
2022-08-22T20:56:19.805Z,101035.44
2022-08-22T20:59:04.184Z,101032.22
2022-08-22T21:01:56.396Z,101039.16
2022-08-22T21:04:50.159Z,101027.94
2022-08-22T21:07:42.894Z,101024.56
2022-08-22T21:10:54.242Z,101023.75
2022-08-22T21:13:46.348Z,101024.91
2022-08-22T21:16:35.181Z,101030.31
2022-08-22T21:19:32.885Z,101025.44
2022-08-22T21:22:21.996Z,101020.13
2022-08-22T21:25:10.950Z,101020.50
2022-08-22T21:28:00.189Z,101018.81
2022-08-22T21:30:42.921Z,101015.22
2022-08-22T21:33:35.357Z,101018.81
2022-08-22T21:36:17.095Z,101022.34
2022-08-22T21:39:12.791Z,101023.09
2022-08-22T21:42:06.926Z,101026.78
2022-08-22T21:45:49.899Z,101027.03
2022-08-22T21:48:45.865Z,101026.19
2022-08-22T21:51:42.800Z,101026.00
2022-08-22T21:54:40.281Z,101031.41
2022-08-22T21:57:40.836Z,101041.03
2022-08-22T22:00:54.472Z,101038.41
2022-08-22T22:03:44.822Z,101044.44
2022-08-22T22:06:29.068Z,101036.47
2022-08-22T22:09:18.999Z,101041.19
2022-08-22T22:12:02.481Z,101033.59
2022-08-22T22:14:52.910Z,101037.31
2022-08-22T22:17:33.910Z,101036.44
2022-08-22T22:20:22.878Z,101043.66
2022-08-22T22:23:04.946Z,101044.63
2022-08-22T22:26:09.297Z,101049.19
2022-08-22T22:28:58.746Z,101053.72
2022-08-22T22:31:40.224Z,101052.13
2022-08-22T22:34:28.168Z,101062.03
2022-08-22T22:37:10.280Z,101059.22
2022-08-22T22:40:07.125Z,101054.78
2022-08-22T22:42:48.599Z,101057.44
2022-08-22T22:45:40.793Z,101057.44
2022-08-22T22:48:24.067Z,101064.50
2022-08-22T22:51:16.975Z,101061.78
2022-08-22T22:53:58.232Z,101066.19
2022-08-22T22:56:48.071Z,101067.97
2022-08-22T22:59:30.315Z,101069.75
2022-08-22T23:02:24.985Z,101070.69
2022-08-22T23:05:07.300Z,101075.25
2022-08-22T23:07:56.299Z,101074.28
2022-08-22T23:10:38.050Z,101076.06
2022-08-22T23:13:25.983Z,101070.81
2022-08-22T23:16:07.307Z,101073.41
2022-08-22T23:18:54.892Z,101074.34
2022-08-22T23:21:37.055Z,101074.38
2022-08-22T23:24:25.147Z,101076.16
2022-08-22T23:27:21.596Z,101079.75
2022-08-22T23:30:11.198Z,101085.00
2022-08-22T23:32:52.081Z,101085.00
2022-08-22T23:35:39.986Z,101078.81
2022-08-22T23:38:23.134Z,101072.41
2022-08-22T23:41:14.951Z,101076.13
2022-08-22T23:44:02.707Z,101077.03
2022-08-22T23:46:51.061Z,101077.91
2022-08-22T23:49:33.333Z,101083.22
2022-08-22T23:52:39.346Z,101076.38
2022-08-22T23:55:28.900Z,101075.41
2022-08-22T23:58:17.020Z,101082.41
